Portada
METAR-TAF:

METAR-TAF

Aeropuertos :

Granada, España

Base Aérea de Armilla

latitud: 37-08N, longitud: 003-38-08W, altitud: 700 m

Observación

El informe se hizo hace 6 horas y 22 minutos, a las 12:00 UTC
Viento 2 kt con dirección variable
Temperatura 25°C
Humedad 44%
Presión 1021 hPa
Visibilidad 10 km o más
sin nubes por debajo de 1500 m y sin presencia de cumulonimbus.

METAR: LEGA 231200Z VRB02KT CAVOK 25/12 Q1021

Hora: 20:22 (18:22 UTC)

Pronóstico

El informe se hizo hace 4 horas y 22 minutos, a las 14:00 UTC
Pronóstico válido del 23 a las 15 UTC al 23 a las 24 UTC
Viento 8 kt del sur
Visibilidad 10 km o más
Escasas nubes a una altura de 5000 ft

TAF: LEGA 231400Z 2315/2324 17008KT 9999 FEW050

Observaciones y pronósticos meteorológicos de más de 4000 aeropuertos (mensajes METAR y TAF).

Los puntos amarillos y rojos representan las estaciones disponibles.

Ponga el ratón en el punto deseado para ver el nombre de la estación.

Haga clic para ver las observaciones y los pronósticos meteorológicos.

Para cambiar el mapa : haga clic en los botones verdes con una cruz de color negro para hacer un zoom, en el botón verde con un guión para alejar o en las flechas verdes para mapas adyacentes.


METAR-TAF: